createdAt,value
2019-03-25T00:00:09.125Z,0.00
2019-03-25T00:01:09.098Z,0.00
2019-03-25T00:02:09.113Z,0.00
2019-03-25T00:03:09.081Z,0.00
2019-03-25T00:04:09.066Z,0.00
2019-03-25T00:05:09.088Z,0.00
2019-03-25T00:06:09.040Z,0.00
2019-03-25T00:07:09.037Z,0.00
2019-03-25T00:08:09.019Z,0.00
2019-03-25T00:09:09.006Z,0.00
2019-03-25T00:10:09.039Z,0.00
2019-03-25T00:11:08.991Z,0.00
2019-03-25T00:12:08.986Z,0.00
2019-03-25T00:13:08.972Z,0.00
2019-03-25T00:14:08.955Z,0.00
2019-03-25T00:15:08.940Z,0.00
2019-03-25T00:16:08.954Z,0.00
2019-03-25T00:17:08.927Z,0.00
2019-03-25T00:18:08.902Z,0.00
2019-03-25T00:19:08.899Z,0.00
2019-03-25T00:20:08.886Z,0.00
2019-03-25T00:21:08.901Z,0.00
2019-03-25T00:22:08.870Z,0.00
2019-03-25T00:23:08.860Z,0.00
2019-03-25T00:24:08.849Z,0.00
2019-03-25T00:25:08.864Z,0.00
2019-03-25T00:26:08.818Z,0.00
2019-03-25T00:27:08.831Z,0.00
2019-03-25T00:28:08.805Z,0.00
2019-03-25T00:29:08.788Z,0.00
2019-03-25T00:30:08.789Z,0.00
2019-03-25T00:31:08.775Z,0.00
2019-03-25T00:32:08.783Z,0.00
2019-03-25T00:33:08.742Z,0.00
2019-03-25T00:34:08.746Z,0.00
2019-03-25T00:35:08.735Z,0.00
2019-03-25T00:36:08.716Z,0.00
2019-03-25T00:37:08.709Z,0.00
2019-03-25T00:38:08.716Z,0.00
2019-03-25T00:39:08.694Z,0.00
2019-03-25T00:40:08.666Z,0.00
2019-03-25T00:41:08.651Z,0.00
2019-03-25T00:42:08.681Z,0.00
2019-03-25T00:43:08.645Z,0.00
2019-03-25T00:44:08.651Z,0.00
2019-03-25T00:45:08.621Z,0.00
2019-03-25T00:46:08.594Z,0.00
2019-03-25T00:47:08.614Z,0.00
2019-03-25T00:48:08.590Z,0.00
2019-03-25T00:49:08.602Z,0.00
2019-03-25T00:50:08.559Z,0.00
2019-03-25T00:51:08.555Z,0.00
2019-03-25T00:52:08.534Z,0.00
2019-03-25T00:53:08.539Z,0.00
2019-03-25T00:54:08.523Z,0.00
2019-03-25T00:55:08.526Z,0.00
2019-03-25T00:56:08.502Z,0.00
2019-03-25T00:57:08.494Z,0.00
2019-03-25T00:58:08.488Z,0.00
2019-03-25T00:59:08.459Z,0.00
2019-03-25T01:00:08.451Z,0.00
2019-03-25T01:01:08.459Z,0.00
2019-03-25T01:02:08.439Z,0.00
2019-03-25T01:03:08.431Z,0.00
2019-03-25T01:04:08.395Z,0.00
2019-03-25T01:05:08.404Z,0.00
2019-03-25T01:06:08.422Z,0.00
2019-03-25T01:07:08.382Z,0.00
2019-03-25T01:08:08.371Z,0.00
2019-03-25T01:09:08.375Z,0.00
2019-03-25T01:10:08.343Z,0.00
2019-03-25T01:11:08.328Z,0.00
2019-03-25T01:12:08.334Z,0.00
2019-03-25T01:13:08.299Z,0.00
2019-03-25T01:14:08.307Z,0.00
2019-03-25T01:15:08.294Z,0.00
2019-03-25T01:16:08.285Z,0.00
2019-03-25T01:17:08.301Z,0.00
2019-03-25T01:18:16.845Z,0.00
2019-03-25T01:19:09.238Z,0.00
2019-03-25T01:20:08.275Z,0.00
2019-03-25T01:21:08.222Z,0.00
2019-03-25T01:22:08.202Z,0.00
2019-03-25T01:23:08.228Z,0.00
2019-03-25T01:24:08.181Z,0.00
2019-03-25T01:25:08.170Z,0.00
2019-03-25T01:26:08.175Z,0.00
2019-03-25T01:27:08.162Z,0.00
2019-03-25T01:28:08.158Z,0.00
2019-03-25T01:29:08.162Z,0.00
2019-03-25T01:30:08.118Z,0.00
2019-03-25T01:31:08.102Z,0.00
2019-03-25T01:32:08.102Z,0.00
2019-03-25T01:33:08.086Z,0.00
2019-03-25T01:34:08.114Z,0.00
2019-03-25T01:35:08.070Z,0.00
2019-03-25T01:36:08.057Z,0.00
2019-03-25T01:37:08.049Z,0.00
2019-03-25T01:38:08.037Z,0.00
2019-03-25T01:39:08.028Z,0.00
2019-03-25T01:40:08.046Z,0.00
2019-03-25T01:41:08.019Z,0.00
2019-03-25T01:42:07.991Z,0.00
2019-03-25T01:43:07.974Z,0.00
2019-03-25T01:44:07.964Z,0.00
2019-03-25T01:45:07.948Z,0.00
2019-03-25T01:46:07.975Z,0.00
2019-03-25T01:47:07.943Z,0.00
2019-03-25T01:48:07.931Z,0.00
2019-03-25T01:49:07.914Z,0.00
2019-03-25T01:50:07.909Z,0.00
2019-03-25T01:51:07.911Z,0.00
2019-03-25T01:52:07.892Z,0.00
2019-03-25T01:53:07.901Z,0.00
2019-03-25T01:54:07.856Z,0.00
2019-03-25T01:55:13.314Z,0.00
2019-03-25T01:56:08.840Z,0.00
2019-03-25T01:57:07.851Z,0.00
2019-03-25T01:58:07.817Z,0.00
2019-03-25T01:59:07.807Z,0.00
2019-03-25T02:00:07.823Z,0.00
2019-03-25T02:01:07.789Z,0.00
2019-03-25T02:02:07.766Z,0.00
2019-03-25T02:03:07.794Z,0.00
2019-03-25T02:04:07.751Z,0.00
2019-03-25T02:05:07.732Z,0.00
2019-03-25T02:06:07.736Z,0.00
2019-03-25T02:07:07.734Z,0.00
2019-03-25T02:08:07.704Z,0.00
2019-03-25T02:09:07.714Z,0.00
2019-03-25T02:10:07.685Z,0.00
2019-03-25T02:11:07.670Z,0.00
2019-03-25T02:12:07.700Z,0.00
2019-03-25T02:13:07.654Z,0.00
2019-03-25T02:14:07.648Z,0.00
2019-03-25T02:15:07.626Z,0.00
2019-03-25T02:16:07.643Z,0.00
2019-03-25T02:17:07.613Z,0.00
2019-03-25T02:18:07.602Z,0.00
2019-03-25T02:19:07.596Z,0.00
2019-03-25T02:20:07.587Z,0.00
2019-03-25T02:21:07.596Z,0.00
2019-03-25T02:22:07.542Z,0.00
2019-03-25T02:23:07.766Z,0.00
2019-03-25T02:24:07.538Z,0.00
2019-03-25T02:25:07.517Z,0.00
2019-03-25T02:26:07.519Z,0.00
2019-03-25T02:27:07.522Z,0.00
2019-03-25T02:28:07.484Z,0.00
2019-03-25T02:29:07.472Z,0.00
2019-03-25T02:30:07.481Z,0.00
2019-03-25T02:31:07.465Z,0.00
2019-03-25T02:32:07.446Z,0.00
2019-03-25T02:33:07.456Z,0.00
2019-03-25T02:34:07.419Z,0.00
2019-03-25T02:35:07.433Z,0.00
2019-03-25T02:36:07.414Z,0.00
2019-03-25T02:37:07.392Z,0.00
2019-03-25T02:38:07.406Z,0.00
2019-03-25T02:39:07.372Z,0.00
2019-03-25T02:40:07.350Z,0.00
2019-03-25T02:41:07.339Z,0.00
2019-03-25T02:42:07.338Z,0.00
2019-03-25T02:43:07.340Z,0.00
2019-03-25T02:44:07.350Z,0.00
2019-03-25T02:45:07.304Z,0.00
2019-03-25T02:46:07.295Z,0.00
2019-03-25T02:47:07.282Z,0.00
2019-03-25T02:48:07.263Z,0.00
2019-03-25T02:49:07.268Z,0.00
2019-03-25T02:50:07.255Z,0.00
2019-03-25T02:51:07.275Z,0.00
2019-03-25T02:52:07.233Z,0.00
2019-03-25T02:53:07.214Z,0.00
2019-03-25T02:54:07.204Z,0.00
2019-03-25T02:55:07.192Z,0.00
2019-03-25T02:56:07.181Z,0.00
2019-03-25T02:57:07.200Z,0.00
2019-03-25T02:58:07.159Z,0.00
2019-03-25T02:59:07.138Z,0.00
2019-03-25T03:00:07.147Z,0.00
2019-03-25T03:01:07.126Z,0.00
2019-03-25T03:02:07.140Z,0.00
2019-03-25T03:03:07.112Z,0.00
2019-03-25T03:04:07.114Z,0.00
2019-03-25T03:05:07.107Z,0.00
2019-03-25T03:06:07.065Z,0.00
2019-03-25T03:07:07.053Z,0.00
2019-03-25T03:08:07.082Z,0.00
2019-03-25T03:09:07.045Z,0.00
2019-03-25T03:10:07.029Z,0.00
2019-03-25T03:11:07.049Z,0.00
2019-03-25T03:12:07.003Z,0.00
2019-03-25T03:13:06.986Z,0.00
2019-03-25T03:14:07.010Z,0.00
2019-03-25T03:15:06.986Z,0.00
2019-03-25T03:16:06.963Z,0.00
2019-03-25T03:17:06.959Z,0.00
2019-03-25T03:18:06.935Z,0.00
2019-03-25T03:19:06.924Z,0.00
2019-03-25T03:20:06.955Z,0.00
2019-03-25T03:21:06.906Z,0.00
2019-03-25T03:22:06.924Z,0.00
2019-03-25T03:23:06.888Z,0.00
2019-03-25T03:24:06.897Z,0.00
2019-03-25T03:25:06.874Z,0.00
2019-03-25T03:26:06.877Z,0.00
2019-03-25T03:27:06.834Z,0.00
2019-03-25T03:28:06.849Z,0.00
2019-03-25T03:29:06.822Z,0.00
2019-03-25T03:30:06.816Z,0.00
2019-03-25T03:31:06.842Z,0.00
2019-03-25T03:32:06.840Z,0.00
2019-03-25T03:33:06.773Z,0.00
2019-03-25T03:34:06.840Z,0.00
2019-03-25T03:35:06.778Z,0.00
2019-03-25T03:36:06.735Z,0.00
2019-03-25T03:37:06.758Z,0.00
2019-03-25T03:38:06.748Z,0.00
2019-03-25T03:39:06.724Z,0.00
2019-03-25T03:40:06.715Z,0.00
2019-03-25T03:41:06.694Z,0.00
2019-03-25T03:42:06.677Z,0.00
2019-03-25T03:43:06.691Z,0.00
2019-03-25T03:44:06.662Z,0.00
2019-03-25T03:45:06.659Z,0.00
2019-03-25T03:46:06.629Z,0.00
2019-03-25T03:47:06.614Z,0.00
2019-03-25T03:48:06.624Z,0.00
2019-03-25T03:49:06.595Z,0.00
2019-03-25T03:50:06.613Z,0.00
2019-03-25T03:51:06.576Z,0.00
2019-03-25T03:52:06.582Z,0.00
2019-03-25T03:53:06.559Z,0.00
2019-03-25T03:54:06.559Z,0.00
2019-03-25T03:55:06.563Z,0.00
2019-03-25T03:56:13.631Z,0.00
2019-03-25T03:57:07.514Z,0.00
2019-03-25T03:58:06.503Z,0.00
2019-03-25T03:59:06.528Z,0.00
2019-03-25T04:00:06.473Z,0.00
2019-03-25T04:01:06.469Z,0.00
2019-03-25T04:02:06.461Z,0.00
2019-03-25T04:03:06.456Z,0.00
2019-03-25T04:04:06.442Z,0.00
2019-03-25T04:05:06.447Z,0.00
2019-03-25T04:06:06.406Z,0.00
2019-03-25T04:07:06.392Z,0.00
2019-03-25T04:08:06.389Z,0.00
2019-03-25T04:09:06.386Z,0.00
2019-03-25T04:10:06.404Z,0.00
2019-03-25T04:11:06.369Z,0.00
2019-03-25T04:12:06.356Z,0.00
2019-03-25T04:13:06.336Z,0.00
2019-03-25T04:14:06.318Z,0.00
2019-03-25T04:15:06.331Z,0.00
2019-03-25T04:16:06.301Z,0.00
2019-03-25T04:17:06.293Z,0.00
2019-03-25T04:18:06.316Z,0.00
2019-03-25T04:19:06.269Z,0.00
2019-03-25T04:20:06.269Z,0.00
2019-03-25T04:21:06.265Z,0.00
2019-03-25T04:22:06.237Z,0.00
2019-03-25T04:23:06.232Z,0.00
2019-03-25T04:24:06.242Z,0.00
2019-03-25T04:25:06.218Z,0.00
2019-03-25T04:26:06.190Z,0.00
2019-03-25T04:27:06.180Z,0.00
2019-03-25T04:28:06.174Z,4.00
2019-03-25T04:29:06.169Z,4.00
2019-03-25T04:30:06.156Z,4.00
2019-03-25T04:31:06.155Z,0.00
2019-03-25T04:32:06.412Z,4.00
2019-03-25T04:33:06.120Z,4.00
2019-03-25T04:34:06.104Z,4.00
2019-03-25T04:35:06.134Z,8.00
2019-03-25T04:36:06.085Z,8.00
2019-03-25T04:37:06.081Z,12.00
2019-03-25T04:38:06.081Z,12.00
2019-03-25T04:39:06.046Z,12.00
2019-03-25T04:40:06.037Z,16.00
2019-03-25T04:41:06.025Z,16.00
2019-03-25T04:42:06.049Z,20.00
2019-03-25T04:43:06.024Z,24.00
2019-03-25T04:44:06.005Z,24.00
2019-03-25T04:45:05.990Z,28.00
2019-03-25T04:46:05.965Z,32.00
2019-03-25T04:47:05.961Z,40.00
2019-03-25T04:48:05.990Z,44.00
2019-03-25T04:49:05.944Z,52.00
2019-03-25T04:50:06.726Z,56.00
2019-03-25T04:51:05.908Z,72.00
2019-03-25T04:52:05.906Z,80.00
2019-03-25T04:53:05.891Z,92.00
2019-03-25T04:54:05.915Z,116.00
2019-03-25T04:55:05.881Z,136.00
2019-03-25T04:56:05.877Z,160.00
2019-03-25T04:57:05.855Z,144.00
2019-03-25T04:58:05.831Z,116.00
2019-03-25T04:59:05.843Z,108.00
2019-03-25T05:00:05.811Z,124.00
2019-03-25T05:01:05.801Z,132.00
2019-03-25T05:02:05.815Z,128.00
2019-03-25T05:03:05.792Z,108.00
2019-03-25T05:04:05.814Z,108.00
2019-03-25T05:05:05.776Z,124.00
2019-03-25T05:06:05.759Z,136.00
2019-03-25T05:07:05.759Z,128.00
2019-03-25T05:08:05.734Z,140.00
2019-03-25T05:09:05.730Z,144.00
2019-03-25T05:10:05.730Z,140.00
2019-03-25T05:11:05.695Z,156.00
2019-03-25T05:12:05.686Z,188.00
2019-03-25T05:13:05.690Z,252.00
2019-03-25T05:14:05.662Z,308.00
2019-03-25T05:15:05.659Z,360.00
2019-03-25T05:16:05.680Z,400.00
2019-03-25T05:17:05.660Z,424.00
2019-03-25T05:18:05.615Z,480.00
2019-03-25T05:19:05.618Z,532.00
2019-03-25T05:20:05.604Z,556.00
2019-03-25T05:21:05.602Z,592.00
2019-03-25T05:22:05.598Z,672.00
2019-03-25T05:23:05.571Z,704.00
2019-03-25T05:24:05.552Z,692.00
2019-03-25T05:25:05.538Z,632.00
2019-03-25T05:26:05.554Z,612.00
2019-03-25T05:27:05.537Z,676.00
2019-03-25T05:28:05.514Z,800.00
2019-03-25T05:29:05.498Z,1000.00
2019-03-25T05:30:05.512Z,1248.00
2019-03-25T05:31:05.479Z,1492.00
2019-03-25T05:32:05.481Z,1704.00
2019-03-25T05:33:05.456Z,1624.00
2019-03-25T05:34:05.455Z,1288.00
2019-03-25T05:35:05.440Z,1288.00
2019-03-25T05:36:05.422Z,1528.00
2019-03-25T05:37:05.432Z,1664.00
2019-03-25T05:38:05.401Z,1868.00
2019-03-25T05:39:05.428Z,1868.00
2019-03-25T05:40:05.396Z,1664.00
2019-03-25T05:41:05.369Z,1468.00
2019-03-25T05:42:05.383Z,1492.00
2019-03-25T05:43:07.059Z,1332.00
2019-03-25T05:44:05.325Z,1080.00
2019-03-25T05:45:05.349Z,884.00
2019-03-25T05:46:05.315Z,816.00
2019-03-25T05:47:05.311Z,568.00
2019-03-25T05:48:05.294Z,452.00
2019-03-25T05:49:05.288Z,440.00
2019-03-25T05:50:05.288Z,360.00
2019-03-25T05:51:05.256Z,256.00
2019-03-25T05:52:05.257Z,256.00
2019-03-25T05:53:05.258Z,260.00
2019-03-25T05:54:05.222Z,256.00
2019-03-25T05:55:05.218Z,280.00
2019-03-25T05:56:05.241Z,448.00
2019-03-25T05:57:05.198Z,584.00
2019-03-25T05:58:05.201Z,644.00
2019-03-25T05:59:05.192Z,740.00
2019-03-25T06:00:05.180Z,764.00
2019-03-25T06:01:05.168Z,760.00
2019-03-25T06:02:05.165Z,832.00
2019-03-25T06:03:05.128Z,976.00
2019-03-25T06:04:05.121Z,1184.00
2019-03-25T06:05:05.105Z,1196.00
2019-03-25T06:06:05.094Z,1244.00
2019-03-25T06:07:05.120Z,1348.00
2019-03-25T06:08:05.067Z,1436.00
2019-03-25T06:09:05.051Z,1628.00
2019-03-25T06:10:05.053Z,1716.00
2019-03-25T06:11:05.043Z,1508.00
2019-03-25T06:12:05.032Z,1224.00
2019-03-25T06:13:05.036Z,940.00
2019-03-25T06:14:05.022Z,744.00
2019-03-25T06:15:04.996Z,804.00
2019-03-25T06:16:04.987Z,920.00
2019-03-25T06:17:04.969Z,1100.00
2019-03-25T06:18:04.990Z,996.00
2019-03-25T06:19:04.959Z,836.00
2019-03-25T06:20:04.953Z,868.00
2019-03-25T06:21:04.958Z,844.00
2019-03-25T06:22:04.929Z,884.00
2019-03-25T06:23:04.908Z,1168.00
2019-03-25T06:24:04.904Z,976.00
2019-03-25T06:25:04.910Z,820.00
2019-03-25T06:26:04.882Z,828.00
2019-03-25T06:27:13.732Z,764.00
2019-03-25T06:28:05.848Z,864.00
2019-03-25T06:29:04.854Z,720.00
2019-03-25T06:30:04.844Z,684.00
2019-03-25T06:31:04.829Z,796.00
2019-03-25T06:32:04.842Z,768.00
2019-03-25T06:33:12.345Z,720.00
2019-03-25T06:34:05.782Z,752.00
2019-03-25T06:35:04.773Z,704.00
2019-03-25T06:36:04.757Z,704.00
2019-03-25T06:37:04.750Z,812.00
2019-03-25T06:38:04.796Z,828.00
2019-03-25T06:39:04.747Z,776.00
2019-03-25T06:40:04.716Z,788.00
2019-03-25T06:41:04.712Z,844.00
2019-03-25T06:42:04.711Z,916.00
2019-03-25T06:43:04.716Z,1084.00
2019-03-25T06:44:04.713Z,1032.00
2019-03-25T06:45:04.674Z,892.00
2019-03-25T06:46:04.658Z,940.00
2019-03-25T06:47:04.646Z,940.00
2019-03-25T06:48:04.629Z,1012.00
2019-03-25T06:49:04.616Z,864.00
2019-03-25T06:50:04.643Z,1004.00
2019-03-25T06:51:04.609Z,1140.00
2019-03-25T06:52:04.602Z,1328.00
2019-03-25T06:53:04.593Z,1352.00
2019-03-25T06:54:04.577Z,1452.00
2019-03-25T06:55:04.559Z,1332.00
2019-03-25T06:56:04.657Z,1048.00
2019-03-25T06:57:04.543Z,1208.00
2019-03-25T06:58:04.523Z,1292.00
2019-03-25T06:59:04.529Z,1176.00
2019-03-25T07:00:04.532Z,1196.00
2019-03-25T07:01:04.496Z,1420.00
2019-03-25T07:02:04.505Z,1276.00
2019-03-25T07:03:04.477Z,1072.00
2019-03-25T07:04:04.469Z,1060.00
2019-03-25T07:05:04.458Z,1164.00
2019-03-25T07:06:04.449Z,1124.00
2019-03-25T07:07:04.426Z,1256.00
2019-03-25T07:08:04.418Z,1432.00
2019-03-25T07:09:04.426Z,1392.00
2019-03-25T07:10:04.402Z,1528.00
2019-03-25T07:11:04.405Z,1512.00
2019-03-25T07:12:04.367Z,1884.00
2019-03-25T07:13:04.367Z,1716.00
2019-03-25T07:14:04.439Z,1908.00
2019-03-25T07:15:04.397Z,2064.00
2019-03-25T07:16:04.352Z,2204.00
2019-03-25T07:17:04.325Z,2464.00
2019-03-25T07:18:04.306Z,2468.00
2019-03-25T07:19:04.300Z,2468.00
2019-03-25T07:20:04.285Z,2288.00
2019-03-25T07:21:04.293Z,2672.00
2019-03-25T07:22:04.290Z,2472.00
2019-03-25T07:23:04.264Z,2300.00
2019-03-25T07:24:04.285Z,2500.00
2019-03-25T07:25:04.241Z,2940.00
2019-03-25T07:26:04.249Z,2996.00
2019-03-25T07:27:04.214Z,2724.00
2019-03-25T07:28:04.213Z,2840.00
2019-03-25T07:29:04.219Z,2796.00
2019-03-25T07:30:04.225Z,2424.00
2019-03-25T07:31:04.160Z,2360.00
2019-03-25T07:32:04.171Z,3304.00
2019-03-25T07:33:05.190Z,3432.00
2019-03-25T07:34:04.248Z,4032.00
2019-03-25T07:35:04.251Z,3356.00
2019-03-25T07:36:04.804Z,2796.00
2019-03-25T07:37:04.108Z,3012.00
2019-03-25T07:38:04.816Z,2856.00
2019-03-25T07:39:04.726Z,2808.00
2019-03-25T07:40:04.078Z,4184.00
2019-03-25T07:41:04.077Z,4892.00
2019-03-25T07:42:04.051Z,4540.00
2019-03-25T07:43:04.071Z,3992.00
2019-03-25T07:44:04.026Z,3744.00
2019-03-25T07:45:04.014Z,4080.00
2019-03-25T07:46:04.008Z,4404.00
2019-03-25T07:47:04.005Z,3996.00
2019-03-25T07:48:04.315Z,5344.00
2019-03-25T07:49:03.983Z,4324.00
2019-03-25T07:50:03.958Z,3892.00
2019-03-25T07:51:03.970Z,4300.00
2019-03-25T07:52:03.930Z,4660.00
2019-03-25T07:53:03.922Z,4008.00
2019-03-25T07:54:03.954Z,4448.00
2019-03-25T07:55:03.925Z,4672.00
2019-03-25T07:56:03.933Z,3752.00
2019-03-25T07:57:03.908Z,4904.00
2019-03-25T07:58:03.874Z,5516.00
2019-03-25T07:59:03.867Z,5224.00
2019-03-25T08:00:13.133Z,7672.00
2019-03-25T08:01:04.846Z,8036.00
2019-03-25T08:02:03.840Z,7008.00
2019-03-25T08:03:03.827Z,5284.00
2019-03-25T08:04:03.856Z,5988.00
2019-03-25T08:05:03.808Z,5628.00
2019-03-25T08:06:03.817Z,6468.00
2019-03-25T08:07:03.786Z,6004.00
2019-03-25T08:08:03.807Z,6596.00
2019-03-25T08:09:04.255Z,6292.00
2019-03-25T08:10:03.762Z,7032.00
2019-03-25T08:11:03.771Z,6048.00
2019-03-25T08:12:03.750Z,4348.00
2019-03-25T08:13:04.758Z,4832.00
2019-03-25T08:14:03.744Z,5168.00
2019-03-25T08:15:03.727Z,4352.00
2019-03-25T08:16:03.694Z,4164.00
2019-03-25T08:17:03.670Z,4072.00
2019-03-25T08:18:03.663Z,3652.00
2019-03-25T08:19:03.681Z,4124.00
2019-03-25T08:20:03.637Z,4148.00
2019-03-25T08:21:03.624Z,3964.00
2019-03-25T08:22:03.607Z,3968.00
2019-03-25T08:23:03.594Z,4076.00
2019-03-25T08:24:03.592Z,2992.00
2019-03-25T08:25:03.600Z,3060.00
2019-03-25T08:26:03.592Z,4960.00
2019-03-25T08:27:03.567Z,3680.00
2019-03-25T08:28:03.559Z,3092.00
2019-03-25T08:29:03.546Z,3728.00
2019-03-25T08:30:03.523Z,4940.00
2019-03-25T08:31:03.537Z,3856.00
2019-03-25T08:32:03.525Z,4592.00
2019-03-25T08:33:03.506Z,4556.00
2019-03-25T08:34:03.474Z,4012.00
2019-03-25T08:35:03.464Z,5868.00
2019-03-25T08:36:03.478Z,4388.00
2019-03-25T08:37:04.491Z,3360.00
2019-03-25T08:38:03.464Z,3652.00
2019-03-25T08:39:03.425Z,3932.00
2019-03-25T08:40:03.418Z,4520.00
2019-03-25T08:41:03.412Z,3692.00
2019-03-25T08:42:03.381Z,4216.00
2019-03-25T08:43:03.413Z,3588.00
2019-03-25T08:44:03.378Z,3504.00
2019-03-25T08:45:03.347Z,3512.00
2019-03-25T08:46:03.362Z,3836.00
2019-03-25T08:47:03.369Z,4360.00
2019-03-25T08:48:03.326Z,4144.00
2019-03-25T08:49:03.332Z,3416.00
2019-03-25T08:50:03.315Z,4816.00
2019-03-25T08:51:03.300Z,4908.00
2019-03-25T08:52:03.289Z,6104.00
2019-03-25T08:53:03.302Z,5852.00
2019-03-25T08:54:03.261Z,5244.00
2019-03-25T08:55:03.252Z,5800.00
2019-03-25T08:56:03.244Z,6180.00
2019-03-25T08:57:03.233Z,6832.00
2019-03-25T08:58:12.012Z,9536.00
2019-03-25T08:59:04.213Z,14636.00
2019-03-25T09:00:03.239Z,10276.00
2019-03-25T09:01:03.193Z,9096.00
2019-03-25T09:02:03.167Z,6088.00
2019-03-25T09:03:03.162Z,5144.00
2019-03-25T09:04:03.155Z,4004.00
2019-03-25T09:05:03.149Z,3612.00
2019-03-25T09:06:03.152Z,5248.00
2019-03-25T09:07:03.208Z,4932.00
2019-03-25T09:08:03.108Z,4552.00
2019-03-25T09:09:03.096Z,6200.00
2019-03-25T09:10:03.095Z,7032.00
2019-03-25T09:11:03.102Z,9756.00
2019-03-25T09:12:03.071Z,13332.00
2019-03-25T09:13:03.078Z,11780.00
2019-03-25T09:14:03.043Z,4740.00
2019-03-25T09:15:03.042Z,3080.00
2019-03-25T09:16:03.014Z,3076.00
2019-03-25T09:17:03.008Z,5052.00
2019-03-25T09:18:03.022Z,8232.00
2019-03-25T09:19:02.997Z,10360.00
2019-03-25T09:20:02.973Z,8236.00
2019-03-25T09:21:02.976Z,8652.00
2019-03-25T09:22:02.964Z,10716.00
2019-03-25T09:23:02.986Z,8836.00
2019-03-25T09:24:02.957Z,5940.00
2019-03-25T09:25:02.932Z,5348.00
2019-03-25T09:26:02.907Z,6848.00
2019-03-25T09:27:02.911Z,5828.00
2019-03-25T09:28:02.879Z,5764.00
2019-03-25T09:29:02.907Z,5940.00
2019-03-25T09:30:03.671Z,7688.00
2019-03-25T09:31:02.864Z,6300.00
2019-03-25T09:32:02.851Z,8656.00
2019-03-25T09:33:02.857Z,12992.00
2019-03-25T09:34:02.819Z,18784.00
2019-03-25T09:35:02.840Z,16152.00
2019-03-25T09:36:02.930Z,14088.00
2019-03-25T09:37:02.800Z,17056.00
2019-03-25T09:38:02.775Z,16228.00
2019-03-25T09:39:02.779Z,15980.00
2019-03-25T09:40:02.777Z,21568.00
2019-03-25T09:41:02.742Z,29632.00
2019-03-25T09:42:02.737Z,26560.00
2019-03-25T09:43:02.747Z,22400.00
2019-03-25T09:44:02.735Z,22944.00
2019-03-25T09:45:02.749Z,22848.00
2019-03-25T09:46:02.691Z,22944.00
2019-03-25T09:47:02.687Z,23744.00
2019-03-25T09:48:02.674Z,21504.00
2019-03-25T09:49:02.662Z,18784.00
2019-03-25T09:50:02.657Z,19392.00
2019-03-25T09:51:02.665Z,24576.00
2019-03-25T09:52:02.616Z,20480.00
2019-03-25T09:53:02.611Z,18656.00
2019-03-25T09:54:02.611Z,19904.00
2019-03-25T09:55:02.597Z,17760.00
2019-03-25T09:56:02.612Z,19104.00
2019-03-25T09:57:02.593Z,15796.00
2019-03-25T09:58:02.559Z,13968.00
2019-03-25T09:59:02.550Z,12468.00
2019-03-25T10:00:02.549Z,10492.00
2019-03-25T10:01:02.527Z,11532.00
2019-03-25T10:02:02.552Z,11068.00
2019-03-25T10:03:02.530Z,9204.00
2019-03-25T10:04:02.491Z,8412.00
2019-03-25T10:05:02.489Z,9952.00
2019-03-25T10:06:02.468Z,9392.00
2019-03-25T10:07:02.458Z,9136.00
2019-03-25T10:08:02.476Z,7996.00
2019-03-25T10:09:02.441Z,9640.00
2019-03-25T10:10:02.418Z,9808.00
2019-03-25T10:11:02.413Z,12168.00
2019-03-25T10:12:02.409Z,14308.00
2019-03-25T10:13:02.407Z,16228.00
2019-03-25T10:14:02.393Z,13596.00
2019-03-25T10:15:02.404Z,12832.00
2019-03-25T10:16:02.365Z,15808.00
2019-03-25T10:17:02.362Z,16040.00
2019-03-25T10:18:02.342Z,26816.00
2019-03-25T10:19:02.330Z,23552.00
2019-03-25T10:20:02.514Z,38304.00
2019-03-25T10:21:02.317Z,11000.00
2019-03-25T10:22:02.476Z,10880.00
2019-03-25T10:23:02.318Z,7164.00
2019-03-25T10:24:02.842Z,4840.00
2019-03-25T10:25:02.255Z,4912.00
2019-03-25T10:26:02.256Z,5048.00
2019-03-25T10:27:02.278Z,6688.00
2019-03-25T10:28:02.242Z,7100.00
2019-03-25T10:29:02.222Z,6396.00
2019-03-25T10:30:02.215Z,7480.00
2019-03-25T10:31:02.195Z,10636.00
2019-03-25T10:32:02.175Z,11456.00
2019-03-25T10:33:02.205Z,14616.00
2019-03-25T10:34:02.171Z,14904.00
2019-03-25T10:35:02.164Z,16604.00
2019-03-25T10:36:02.157Z,19232.00
2019-03-25T10:37:02.147Z,20384.00
2019-03-25T10:38:02.148Z,20384.00
2019-03-25T10:39:02.177Z,22080.00
2019-03-25T10:40:02.107Z,20928.00
2019-03-25T10:41:02.101Z,19328.00
2019-03-25T10:42:02.072Z,18080.00
2019-03-25T10:43:02.063Z,17824.00
2019-03-25T10:44:02.090Z,20896.00
2019-03-25T10:45:02.067Z,20096.00
2019-03-25T10:46:02.032Z,17984.00
2019-03-25T10:47:02.037Z,18848.00
2019-03-25T10:48:02.022Z,22272.00
2019-03-25T10:49:01.998Z,24064.00
2019-03-25T10:50:02.003Z,32096.00
2019-03-25T10:51:01.971Z,28512.00
2019-03-25T10:52:01.967Z,29216.00
2019-03-25T10:53:01.948Z,24672.00
2019-03-25T10:54:01.957Z,27936.00
2019-03-25T10:55:01.957Z,55584.00
2019-03-25T10:56:01.920Z,62112.00
2019-03-25T10:57:01.897Z,60928.00
2019-03-25T10:58:01.901Z,24032.00
2019-03-25T10:59:01.894Z,96832.00
2019-03-25T11:00:01.889Z,95392.00
2019-03-25T11:01:01.865Z,29536.00
2019-03-25T11:02:01.905Z,84128.00
2019-03-25T11:03:01.843Z,69056.00
2019-03-25T11:04:01.820Z,54624.00
2019-03-25T11:05:01.805Z,64128.00
2019-03-25T11:06:01.820Z,57024.00
2019-03-25T11:07:01.908Z,51424.00
2019-03-25T11:08:01.840Z,40544.00
2019-03-25T11:09:01.778Z,81376.00
2019-03-25T11:10:01.765Z,63296.00
2019-03-25T11:11:01.751Z,58816.00
2019-03-25T11:12:01.739Z,37600.00
2019-03-25T11:13:01.738Z,55584.00
2019-03-25T11:14:01.737Z,66784.00
2019-03-25T11:15:01.714Z,36160.00
2019-03-25T11:16:01.736Z,18368.00
2019-03-25T11:17:01.678Z,15116.00
2019-03-25T11:18:01.690Z,12924.00
2019-03-25T11:19:01.696Z,13176.00
2019-03-25T11:20:01.660Z,16100.00
2019-03-25T11:21:01.685Z,18240.00
2019-03-25T11:22:01.631Z,30656.00
2019-03-25T11:23:01.614Z,93984.00
2019-03-25T11:24:01.613Z,95584.00
2019-03-25T11:25:01.594Z,66240.00
2019-03-25T11:26:01.590Z,39136.00
2019-03-25T11:27:01.596Z,39264.00
2019-03-25T11:28:01.563Z,20384.00
2019-03-25T11:29:08.304Z,17696.00
2019-03-25T11:30:02.547Z,18656.00
2019-03-25T11:31:01.548Z,19968.00
2019-03-25T11:32:01.545Z,45728.00
2019-03-25T11:33:01.520Z,35552.00
2019-03-25T11:34:01.506Z,43488.00
2019-03-25T11:35:01.491Z,40000.00
2019-03-25T11:36:02.780Z,63840.00
2019-03-25T11:37:01.492Z,98368.00
2019-03-25T11:38:01.460Z,94560.00
2019-03-25T11:39:01.476Z,93536.00
2019-03-25T11:40:01.441Z,90144.00
2019-03-25T11:41:01.423Z,90496.00
2019-03-25T11:42:01.410Z,91296.00
2019-03-25T11:43:01.421Z,90752.00
2019-03-25T11:44:01.402Z,88672.00
2019-03-25T11:45:01.381Z,86880.00
2019-03-25T11:46:01.354Z,85664.00
2019-03-25T11:47:01.350Z,84224.00
2019-03-25T11:48:01.343Z,84736.00
2019-03-25T11:49:01.351Z,81312.00
2019-03-25T11:50:01.337Z,74688.00
2019-03-25T11:51:01.329Z,66016.00
2019-03-25T11:52:01.305Z,68640.00
2019-03-25T11:53:01.299Z,75360.00
2019-03-25T11:54:01.303Z,80544.00
2019-03-25T11:55:01.269Z,85632.00
2019-03-25T11:56:01.260Z,84768.00
2019-03-25T11:57:01.249Z,85152.00
2019-03-25T11:58:01.260Z,83808.00
2019-03-25T11:59:03.001Z,85120.00
2019-03-25T12:00:01.243Z,76960.00
2019-03-25T12:01:01.192Z,89920.00
2019-03-25T12:02:01.198Z,85568.00
2019-03-25T12:03:01.200Z,84320.00
2019-03-25T12:04:01.180Z,85984.00
2019-03-25T12:05:01.191Z,85664.00
2019-03-25T12:06:01.153Z,86560.00
2019-03-25T12:07:01.159Z,88704.00
2019-03-25T12:08:01.134Z,36928.00
2019-03-25T12:09:01.131Z,85728.00
2019-03-25T12:10:01.110Z,34528.00
2019-03-25T12:11:01.091Z,16768.00
2019-03-25T12:12:01.117Z,17056.00
2019-03-25T12:13:01.080Z,82208.00
2019-03-25T12:14:01.076Z,44288.00
2019-03-25T12:15:01.753Z,27904.00
2019-03-25T12:16:01.051Z,12400.00
2019-03-25T12:17:01.027Z,17536.00
2019-03-25T12:18:01.055Z,16640.00
2019-03-25T12:19:01.021Z,16704.00
2019-03-25T12:20:01.006Z,12852.00
2019-03-25T12:21:00.991Z,9816.00
2019-03-25T12:22:01.019Z,7996.00
2019-03-25T12:23:00.998Z,7840.00
2019-03-25T12:24:00.966Z,6376.00
2019-03-25T12:25:00.947Z,5684.00
2019-03-25T12:26:00.963Z,6028.00
2019-03-25T12:27:00.933Z,6540.00
2019-03-25T12:28:00.926Z,6968.00
2019-03-25T12:29:00.951Z,8960.00